Time;durP1;ratioP1;P1;durP2;ratioP2;P2;SDS_P1;SDS_P2;PMS_P1;PMS_P2;Temp;Humidity;BMP_temperature;BMP_pressure;BME280_temperature;BME280_humidity;BME280_pressure;Samples;Min_cycle;Max_cycle;Signal;HPM_P1;HPM_P2
2022/07/24 00:01:51;;;;;;;4.22;2.05;;;;;;;15.97;70.61;101385.91;4934051;29;20035;-88
2022/07/24 00:04:18;;;;;;;3.05;2.05;;;;;;;15.93;70.60;101389.50;4926615;29;20075;-87
2022/07/24 00:06:45;;;;;;;3.42;3.20;;;;;;;15.93;70.62;101385.97;4928417;29;20047;-92
2022/07/24 00:09:15;;;;;;;2.80;2.45;;;;;;;15.89;70.88;101385.16;4941022;28;20043;-89
2022/07/24 00:11:42;;;;;;;3.03;2.20;;;;;;;15.87;70.97;101385.19;4941307;29;20040;-85
2022/07/24 00:14:09;;;;;;;2.53;2.33;;;;;;;15.86;71.06;101379.94;4941874;29;20047;-84
2022/07/24 00:16:36;;;;;;;2.45;2.25;;;;;;;15.83;71.06;101377.38;4929228;29;20043;-85
2022/07/24 00:19:06;;;;;;;2.65;1.75;;;;;;;15.82;71.21;101379.13;4935034;29;20062;-90
2022/07/24 00:21:40;;;;;;;4.03;1.80;;;;;;;15.77;71.46;101377.44;4948619;29;20048;-87
2022/07/24 00:24:09;;;;;;;1.38;1.27;;;;;;;15.77;71.71;101377.44;4949300;29;20111;-86
2022/07/24 00:26:43;;;;;;;3.15;1.73;;;;;;;15.75;71.61;101384.50;4952962;28;20043;-83
2022/07/24 00:29:10;;;;;;;2.17;1.40;;;;;;;15.74;71.68;101383.66;4951526;29;20031;-88
2022/07/24 00:31:39;;;;;;;1.10;1.00;;;;;;;15.71;72.01;101391.66;4962209;29;20039;-89
2022/07/24 00:34:05;;;;;;;1.50;1.40;;;;;;;15.69;72.10;101393.44;4964619;28;20067;-88
2022/07/24 00:36:33;;;;;;;2.38;2.03;;;;;;;15.63;72.01;101388.25;4953910;29;20119;-84
2022/07/24 00:39:02;;;;;;;1.80;1.35;;;;;;;15.58;72.25;101380.44;4937256;29;20031;-84
2022/07/24 00:41:29;;;;;;;5.65;1.45;;;;;;;15.55;72.53;101385.75;4935882;29;20047;-87
2022/07/24 00:44:12;;;;;;;4.70;1.40;;;;;;;15.53;72.76;101382.28;4934533;29;20043;-84
2022/07/24 00:46:42;;;;;;;10.88;1.80;;;;;;;15.50;72.92;101379.69;4947938;28;20048;-87
2022/07/24 00:49:14;;;;;;;1.75;1.63;;;;;;;15.48;73.15;101379.72;4939690;28;20257;-85
2022/07/24 00:51:47;;;;;;;1.73;1.63;;;;;;;15.42;73.40;101369.28;4929303;29;20130;-84
2022/07/24 00:54:16;;;;;;;1.70;1.60;;;;;;;15.41;74.32;101378.09;4940301;29;20514;-83
2022/07/24 00:56:46;;;;;;;2.40;1.33;;;;;;;15.38;74.62;101386.94;4943543;29;20467;-86
2022/07/24 00:59:14;;;;;;;1.80;1.67;;;;;;;15.34;75.13;101379.09;4938070;29;20501;-85
2022/07/24 01:01:42;;;;;;;2.30;1.77;;;;;;;15.32;75.96;101379.13;4925302;29;20538;-86
2022/07/24 01:04:10;;;;;;;3.65;3.35;;;;;;;15.29;76.35;101379.19;4920753;29;20056;-83
2022/07/24 01:06:42;;;;;;;1.80;1.70;;;;;;;15.27;76.81;101377.47;4936116;29;20039;-85
2022/07/24 01:09:18;;;;;;;4.45;2.15;;;;;;;15.22;76.88;101369.63;4944799;29;20046;-88
2022/07/24 01:11:52;;;;;;;1.58;1.35;;;;;;;15.20;77.25;101369.66;4913108;29;20599;-84
2022/07/24 01:14:19;;;;;;;2.28;1.75;;;;;;;15.17;77.56;101369.69;4930805;29;20075;-85
2022/07/24 01:16:50;;;;;;;2.65;1.80;;;;;;;15.14;77.45;101368.91;4925332;29;20436;-83
2022/07/24 01:19:21;;;;;;;3.80;1.85;;;;;;;15.11;78.26;101374.19;4922633;29;20056;-87
2022/07/24 01:21:53;;;;;;;3.75;2.10;;;;;;;15.09;78.12;101373.38;4932863;29;20039;-85
2022/07/24 01:24:21;;;;;;;4.70;3.70;;;;;;;15.03;79.16;101367.28;4933998;29;20047;-86
2022/07/24 01:26:50;;;;;;;3.30;3.00;;;;;;;15.00;79.61;101359.41;4934581;29;20752;-83
2022/07/24 01:29:17;;;;;;;3.00;2.33;;;;;;;14.95;79.86;101358.63;4934369;29;20049;-83
2022/07/24 01:31:45;;;;;;;4.35;2.95;;;;;;;14.93;80.26;101352.53;4953357;28;20298;-84
2022/07/24 01:34:13;;;;;;;2.75;2.53;;;;;;;14.88;80.07;101357.00;4936594;29;20102;-86
2022/07/24 01:36:45;;;;;;;2.78;2.58;;;;;;;14.83;80.00;101356.19;4926803;29;20044;-85
2022/07/24 01:39:13;;;;;;;3.70;1.60;;;;;;;14.76;80.10;101358.06;4937206;28;20051;-82
2022/07/24 01:41:40;;;;;;;2.75;1.83;;;;;;;14.70;80.37;101358.13;4926134;29;20043;-83
2022/07/24 01:44:07;;;;;;;4.15;2.13;;;;;;;14.69;81.05;101361.66;4938464;29;20039;-83
2022/07/24 01:46:34;;;;;;;2.10;1.92;;;;;;;14.61;80.65;101359.09;4934922;29;20071;-84
2022/07/24 01:49:03;;;;;;;2.13;1.65;;;;;;;14.60;80.29;101348.59;4942021;29;20573;-83
2022/07/24 01:51:30;;;;;;;10.32;1.83;;;;;;;14.55;80.26;101352.16;4938015;29;20040;-84
2022/07/24 01:53:57;;;;;;;2.10;1.85;;;;;;;14.48;80.75;101342.59;4932655;29;20055;-83
2022/07/24 01:56:24;;;;;;;2.67;1.60;;;;;;;14.48;80.71;101349.63;4930411;29;20173;-88
2022/07/24 01:58:51;;;;;;;3.65;1.65;;;;;;;14.45;81.23;101352.31;4925767;29;20036;-84
2022/07/24 02:01:19;;;;;;;2.05;1.67;;;;;;;14.43;81.11;101349.72;4944057;29;20047;-90
2022/07/24 02:03:51;;;;;;;2.08;1.98;;;;;;;14.43;81.37;101354.09;4939982;29;20383;-83
2022/07/24 02:06:22;;;;;;;3.17;1.73;;;;;;;14.42;81.27;101349.72;4928034;29;20056;-84
2022/07/24 02:08:57;;;;;;;2.67;1.67;;;;;;;14.43;81.95;101355.00;4936841;28;20063;-82
2022/07/24 02:11:24;;;;;;;3.73;2.23;;;;;;;14.42;81.48;101353.25;4939763;29;21043;-87
2022/07/24 02:13:52;;;;;;;2.60;2.40;;;;;;;14.41;81.75;101348.84;4940853;29;20067;-85
2022/07/24 02:16:22;;;;;;;5.25;3.83;;;;;;;14.40;81.98;101355.00;4938447;29;20052;-84
2022/07/24 02:18:49;;;;;;;3.05;2.05;;;;;;;14.36;82.12;101348.91;4934021;29;20055;-85
2022/07/24 02:21:16;;;;;;;6.32;2.35;;;;;;;14.34;82.68;101353.34;4945901;29;20550;-85
2022/07/24 02:23:44;;;;;;;2.05;1.35;;;;;;;14.31;82.90;101347.25;4930730;29;20071;-84
2022/07/24 02:26:11;;;;;;;1.95;1.73;;;;;;;14.25;82.93;101355.22;4940109;28;20526;-83
2022/07/24 02:28:38;;;;;;;2.58;1.55;;;;;;;14.22;83.35;101353.47;4937846;29;20043;-84
2022/07/24 02:31:05;;;;;;;1.90;1.80;;;;;;;14.19;83.97;101348.28;4938917;29;20061;-86
2022/07/24 02:33:32;;;;;;;1.23;1.10;;;;;;;14.16;83.75;101350.97;4936831;28;20526;-88
2022/07/24 02:36:02;;;;;;;4.15;1.73;;;;;;;14.12;84.44;101362.38;4928228;29;20059;-87
2022/07/24 02:38:31;;;;;;;2.20;2.00;;;;;;;14.09;84.75;101355.41;4937925;29;20129;-87
2022/07/24 02:41:01;;;;;;;4.57;1.67;;;;;;;14.05;85.22;101354.59;4946162;29;20043;-83
2022/07/24 02:43:32;;;;;;;4.15;1.75;;;;;;;14.02;85.21;101349.34;4936767;29;20043;-84
2022/07/24 02:46:02;;;;;;;3.03;1.77;;;;;;;14.00;86.38;101360.78;4927812;29;20063;-84
2022/07/24 02:48:33;;;;;;;5.00;3.63;;;;;;;13.98;86.53;101352.06;4935958;29;20063;-86
2022/07/24 02:51:00;;;;;;;3.33;1.83;;;;;;;13.94;86.82;101353.84;4925775;29;20242;-83
2022/07/24 02:53:32;;;;;;;1.83;1.70;;;;;;;13.88;87.60;101357.44;4936588;29;20056;-85
2022/07/24 02:55:59;;;;;;;1.50;1.40;;;;;;;13.83;88.38;101356.59;4936803;29;20417;-84
2022/07/24 02:58:29;;;;;;;2.15;1.88;;;;;;;13.80;88.87;101356.63;4930728;29;20055;-87
2022/07/24 03:00:56;;;;;;;2.05;1.95;;;;;;;13.76;89.51;101357.53;4923527;29;20491;-85
2022/07/24 03:03:25;;;;;;;4.47;2.08;;;;;;;13.69;89.96;101362.00;4921706;29;20520;-84
2022/07/24 03:08:39;;;;;;;2.42;1.73;;;;;;;13.64;91.10;101368.22;4937077;29;20050;-82
2022/07/24 03:11:08;;;;;;;2.20;1.67;;;;;;;13.64;91.24;101373.47;4938757;29;20463;-88
2022/07/24 03:13:41;;;;;;;1.95;1.60;;;;;;;13.60;91.34;101370.00;4929454;29;20084;-84
2022/07/24 03:16:13;;;;;;;2.58;2.03;;;;;;;13.59;91.79;101357.72;4925185;29;20071;-83
2022/07/24 03:18:41;;;;;;;2.05;1.63;;;;;;;13.57;92.02;101364.75;4939699;29;20440;-84
2022/07/24 03:21:10;;;;;;;2.33;2.13;;;;;;;13.55;92.70;101356.88;4934170;28;20098;-83
2022/07/24 03:23:37;;;;;;;1.85;1.75;;;;;;;13.56;92.83;101363.03;4929794;29;20810;-82
2022/07/24 03:26:04;;;;;;;2.17;2.08;;;;;;;13.56;92.55;101366.50;4923164;29;20047;-83
2022/07/24 03:28:33;;;;;;;2.00;1.90;;;;;;;13.57;92.25;101364.75;4938153;29;20040;-85
2022/07/24 03:31:03;;;;;;;1.80;1.70;;;;;;;13.57;92.59;101364.75;4921381;29;20058;-86
2022/07/24 03:33:31;;;;;;;1.92;1.80;;;;;;;13.58;92.61;101363.88;4952365;28;20051;-83
2022/07/24 03:36:01;;;;;;;1.50;1.40;;;;;;;13.58;92.50;101363.88;4936133;28;20047;-85
2022/07/24 03:38:36;;;;;;;5.13;1.88;;;;;;;13.60;92.23;101358.59;4925929;29;20134;-86
2022/07/24 03:41:18;;;;;;;1.83;1.73;;;;;;;13.60;92.52;101361.22;4930729;29;20056;-85
2022/07/24 03:43:45;;;;;;;2.88;1.67;;;;;;;13.57;92.56;101360.38;4940834;29;20041;-86
2022/07/24 03:46:15;;;;;;;2.05;1.90;;;;;;;13.56;92.19;101357.75;4945550;28;20039;-86
2022/07/24 03:48:53;;;;;;;3.40;1.73;;;;;;;13.57;92.47;101357.75;4926500;29;20058;-85
2022/07/24 03:51:19;;;;;;;2.45;1.98;;;;;;;13.58;92.55;101361.22;4936325;29;20102;-82
2022/07/24 03:53:49;;;;;;;12.07;2.95;;;;;;;13.61;92.28;101355.06;4948057;29;20066;-82
2022/07/24 03:56:19;;;;;;;4.43;1.90;;;;;;;13.62;92.34;101352.41;4939309;29;20047;-84
2022/07/24 03:58:49;;;;;;;2.35;1.60;;;;;;;13.66;91.95;101359.41;4940160;29;20042;-82
2022/07/24 04:01:19;;;;;;;1.98;1.50;;;;;;;13.70;91.45;101363.75;4936924;29;20063;-85
2022/07/24 04:03:45;;;;;;;4.40;1.40;;;;;;;13.73;91.04;101355.81;4932990;29;20487;-85
2022/07/24 04:06:12;;;;;;;1.67;1.58;;;;;;;13.78;91.05;101362.78;4921797;29;20075;-82
2022/07/24 04:08:40;;;;;;;13.18;2.95;;;;;;;13.80;90.96;101368.91;4940821;28;20044;-84
2022/07/24 04:11:09;;;;;;;1.70;1.60;;;;;;;13.82;90.42;101368.00;4937749;29;20054;-82
2022/07/24 04:13:36;;;;;;;1.70;1.60;;;;;;;13.85;90.19;101367.09;4924245;29;20526;-83
2022/07/24 04:16:03;;;;;;;1.85;1.75;;;;;;;13.89;90.18;101364.41;4934001;29;20051;-83
2022/07/24 04:18:30;;;;;;;1.77;1.25;;;;;;;13.92;89.69;101371.41;4938654;29;20043;-83
2022/07/24 04:20:56;;;;;;;3.75;1.77;;;;;;;13.95;89.66;101362.59;4933396;28;20142;-82
2022/07/24 04:23:23;;;;;;;2.45;1.90;;;;;;;13.99;89.30;101359.91;4936799;29;20199;-84
2022/07/24 04:25:53;;;;;;;1.40;1.30;;;;;;;14.02;89.00;101351.97;4935582;29;20404;-83
2022/07/24 04:28:23;;;;;;;1.70;1.60;;;;;;;14.06;88.79;101353.69;4936485;29;20058;-84
2022/07/24 04:30:53;;;;;;;1.48;1.40;;;;;;;14.11;88.10;101350.16;4924342;29;20035;-86
2022/07/24 04:33:19;;;;;;;2.10;1.70;;;;;;;14.16;87.85;101350.97;4936223;29;20065;-85
2022/07/24 04:35:46;;;;;;;1.30;1.20;;;;;;;14.22;87.43;101348.22;4933198;29;20047;-84
2022/07/24 04:38:13;;;;;;;2.88;1.83;;;;;;;14.29;87.08;101341.09;4933033;29;20039;-84
2022/07/24 04:40:42;;;;;;;1.70;1.58;;;;;;;14.33;86.71;101343.69;4934915;29;20040;-85
2022/07/24 04:43:09;;;;;;;1.42;1.30;;;;;;;14.42;86.25;101347.97;4938157;29;20126;-85
2022/07/24 04:45:36;;;;;;;1.95;1.30;;;;;;;14.50;85.65;101351.34;4926486;29;20051;-85
2022/07/24 04:48:04;;;;;;;5.70;1.73;;;;;;;14.54;85.13;101353.06;4929089;29;20054;-85
2022/07/24 04:50:33;;;;;;;1.55;1.45;;;;;;;14.59;84.86;101354.75;4938204;29;20043;-82
2022/07/24 04:53:00;;;;;;;2.17;1.50;;;;;;;14.64;84.82;101353.84;4928237;29;20146;-83
2022/07/24 04:55:26;;;;;;;1.17;1.10;;;;;;;14.70;84.32;101361.63;4941424;29;20035;-85
2022/07/24 04:57:59;;;;;;;1.92;1.08;;;;;;;14.77;83.86;101351.00;4937245;29;20031;-84
2022/07/24 05:00:26;;;;;;;3.30;1.63;;;;;;;14.84;83.17;101356.16;4937304;29;20452;-86
2022/07/24 05:02:56;;;;;;;2.38;1.50;;;;;;;14.90;82.61;101357.84;4936959;29;20047;-87
2022/07/24 05:05:22;;;;;;;1.05;1.05;;;;;;;14.97;82.13;101341.03;4935423;29;20036;-82
2022/07/24 05:07:49;;;;;;;1.48;1.38;;;;;;;15.02;81.82;101340.97;4931321;29;20058;-86
2022/07/24 05:10:16;;;;;;;1.45;1.42;;;;;;;15.05;81.41;101338.25;4934240;29;20055;-84
2022/07/24 05:12:43;;;;;;;1.45;1.17;;;;;;;15.10;81.16;101340.84;4938109;28;20035;-82
2022/07/24 05:15:10;;;;;;;1.02;0.75;;;;;;;15.13;80.72;101343.41;4919235;29;20055;-88
2022/07/24 05:17:40;;;;;;;2.60;1.10;;;;;;;15.18;80.60;101345.06;4942610;29;20035;-83
2022/07/24 05:20:08;;;;;;;1.60;1.05;;;;;;;15.25;80.17;101350.25;4928097;29;20555;-83
2022/07/24 05:22:35;;;;;;;1.25;1.25;;;;;;;15.30;79.93;101349.25;4937276;29;20055;-83
2022/07/24 05:25:02;;;;;;;1.23;1.13;;;;;;;15.37;79.70;101339.50;4941419;29;20159;-84
2022/07/24 05:27:28;;;;;;;1.83;0.95;;;;;;;15.44;79.36;101348.16;4937796;29;20046;-90
2022/07/24 05:29:55;;;;;;;2.05;1.15;;;;;;;15.50;78.72;101354.19;4944412;29;20044;-83
2022/07/24 05:32:42;;;;;;;2.40;0.93;;;;;;;15.55;78.75;101347.06;4939601;29;20036;-89
2022/07/24 05:35:09;;;;;;;1.20;1.10;;;;;;;15.65;78.52;101355.66;4945686;28;20063;-84
2022/07/24 05:37:36;;;;;;;2.67;1.42;;;;;;;15.70;78.00;101351.16;4939613;29;20044;-84
2022/07/24 05:40:04;;;;;;;1.08;0.95;;;;;;;15.78;77.64;101352.81;4942898;29;20039;-82
2022/07/24 05:42:31;;;;;;;1.23;1.13;;;;;;;15.84;77.37;101342.16;4929534;29;20067;-86
2022/07/24 05:44:57;;;;;;;1.00;0.98;;;;;;;15.90;76.89;101341.16;4934699;29;20047;-84
2022/07/24 05:47:26;;;;;;;2.63;1.45;;;;;;;15.93;76.77;101341.97;4935362;29;20043;-86
2022/07/24 05:49:53;;;;;;;1.10;1.00;;;;;;;15.98;76.55;101344.50;4943556;29;20043;-82
2022/07/24 05:52:19;;;;;;;5.80;1.35;;;;;;;16.02;76.27;101339.13;4934427;29;20122;-85
2022/07/24 05:54:46;;;;;;;1.98;1.70;;;;;;;16.12;75.98;101338.94;4943915;29;20040;-83
2022/07/24 05:57:13;;;;;;;1.13;1.02;;;;;;;16.20;75.39;101337.00;4944227;29;20050;-85
2022/07/24 05:59:39;;;;;;;1.13;1.10;;;;;;;16.30;74.81;101340.34;4945172;29;20071;-85
2022/07/24 06:02:06;;;;;;;0.80;0.80;;;;;;;16.40;74.61;101331.31;4944360;28;20082;-87
2022/07/24 06:04:35;;;;;;;1.58;0.80;;;;;;;16.47;73.84;101332.88;4936682;29;20039;-84
2022/07/24 06:07:02;;;;;;;2.28;0.95;;;;;;;16.56;73.08;101333.56;4940585;29;20039;-83
2022/07/24 06:09:28;;;;;;;2.08;1.45;;;;;;;16.66;72.89;101335.09;4937301;29;20051;-89
2022/07/24 06:11:55;;;;;;;3.25;1.13;;;;;;;16.73;72.50;101325.28;4922673;29;20055;-83
2022/07/24 06:14:22;;;;;;;1.88;0.88;;;;;;;16.80;72.27;101332.13;4934561;29;20063;-85
2022/07/24 06:16:49;;;;;;;1.17;1.10;;;;;;;16.87;71.96;101326.66;4923633;29;20317;-84
2022/07/24 06:19:15;;;;;;;3.88;1.27;;;;;;;16.96;71.94;101322.06;4945062;29;20051;-88
2022/07/24 06:21:42;;;;;;;1.00;1.00;;;;;;;17.02;71.38;101320.13;4956424;29;20168;-89
2022/07/24 06:24:09;;;;;;;6.93;1.05;;;;;;;17.07;70.98;101319.19;4955128;29;20054;-85
2022/07/24 06:26:35;;;;;;;0.60;0.60;;;;;;;17.14;71.04;101312.81;4950924;28;20043;-82
2022/07/24 06:29:02;;;;;;;3.25;1.27;;;;;;;17.20;70.77;101317.94;4953679;29;20043;-86
2022/07/24 06:31:29;;;;;;;1.00;1.00;;;;;;;17.28;70.57;101310.66;4955573;28;20051;-90
2022/07/24 06:33:56;;;;;;;2.60;1.05;;;;;;;17.38;70.05;101313.06;4957366;29;20054;-91
2022/07/24 06:36:22;;;;;;;1.70;1.00;;;;;;;17.45;69.62;101306.72;4960327;29;20043;-87
2022/07/24 06:38:49;;;;;;;1.25;1.23;;;;;;;17.53;69.16;101302.06;4958797;29;20043;-89
2022/07/24 06:41:16;;;;;;;1.17;1.17;;;;;;;17.63;68.75;101297.41;4956148;29;20107;-91
2022/07/24 06:43:43;;;;;;;0.90;0.90;;;;;;;17.69;69.00;101295.44;4973370;28;20103;-87
2022/07/24 06:46:09;;;;;;;1.10;0.70;;;;;;;17.78;68.71;101296.06;4978118;28;20215;-90
2022/07/24 06:48:36;;;;;;;0.70;0.70;;;;;;;17.87;68.86;101293.16;4958438;29;20051;-92
2022/07/24 06:51:03;;;;;;;1.23;0.73;;;;;;;17.90;69.28;101297.50;4955611;28;20107;-84
2022/07/24 06:53:30;;;;;;;0.80;0.80;;;;;;;17.95;69.71;101293.84;4931659;29;20052;-84
2022/07/24 06:55:57;;;;;;;2.13;0.80;;;;;;;17.98;69.69;101299.06;4923535;29;20079;-82
2022/07/24 06:58:27;;;;;;;0.82;0.82;;;;;;;18.06;69.44;101292.66;4939867;29;20040;-90
2022/07/24 07:00:53;;;;;;;3.20;0.60;;;;;;;18.14;69.25;101294.16;4939622;29;20046;-88
2022/07/24 07:03:22;;;;;;;1.15;0.90;;;;;;;18.26;68.69;101289.41;4937620;29;20044;-83
2022/07/24 07:05:49;;;;;;;2.80;1.05;;;;;;;18.39;68.24;101289.88;4934806;29;20138;-82
2022/07/24 07:08:15;;;;;;;1.55;0.70;;;;;;;18.47;67.50;101288.75;4935385;29;20131;-86
2022/07/24 07:10:45;;;;;;;2.33;1.02;;;;;;;18.59;67.75;101286.59;4944459;28;20048;-85
2022/07/24 07:13:15;;;;;;;2.30;0.75;;;;;;;18.72;66.83;101290.59;4942776;28;20063;-83
2022/07/24 07:15:45;;;;;;;1.10;1.08;;;;;;;18.88;65.97;101290.06;4940567;29;20047;-83
2022/07/24 07:18:14;;;;;;;0.90;0.90;;;;;;;19.11;65.34;101295.50;4939027;29;20071;-84
2022/07/24 07:20:41;;;;;;;1.38;1.08;;;;;;;19.43;64.50;101290.84;4937749;29;20050;-82
2022/07/24 07:23:08;;;;;;;4.80;0.85;;;;;;;19.87;62.50;101298.13;4942097;29;20134;-85
2022/07/24 07:25:35;;;;;;;0.93;0.73;;;;;;;20.39;60.20;101289.06;4939480;29;20709;-84
2022/07/24 07:28:01;;;;;;;2.40;1.83;;;;;;;20.93;59.09;101294.88;4923636;29;20039;-85
2022/07/24 07:30:28;;;;;;;0.85;0.85;;;;;;;21.56;57.23;101293.97;4939446;29;20051;-84
2022/07/24 07:32:55;;;;;;;0.80;0.80;;;;;;;22.26;55.88;101289.81;4933726;29;20102;-84
2022/07/24 07:35:22;;;;;;;0.98;0.80;;;;;;;22.93;53.68;101290.13;4938385;29;20059;-86
2022/07/24 07:37:50;;;;;;;0.82;0.68;;;;;;;23.46;51.45;101285.63;4943926;29;20047;-86
2022/07/24 07:40:17;;;;;;;1.38;0.60;;;;;;;24.02;51.00;101279.13;4937696;29;20082;-84
2022/07/24 07:42:47;;;;;;;0.60;0.60;;;;;;;24.52;49.46;101285.22;4936638;29;20031;-83
2022/07/24 07:45:14;;;;;;;0.80;0.52;;;;;;;24.98;46.46;101289.72;4937095;29;20054;-88
2022/07/24 07:47:41;;;;;;;2.13;1.02;;;;;;;25.08;45.57;101286.41;4938447;29;20035;-86
2022/07/24 07:50:09;;;;;;;0.70;0.70;;;;;;;25.37;45.04;101288.28;4954350;29;20060;-88
2022/07/24 07:52:39;;;;;;;1.95;1.05;;;;;;;25.69;45.06;101282.75;4926504;29;20507;-83
2022/07/24 07:55:07;;;;;;;1.85;0.70;;;;;;;26.12;43.11;101287.25;4944873;29;20119;-84
2022/07/24 07:57:34;;;;;;;0.77;0.50;;;;;;;26.47;42.10;101284.06;4947085;29;20432;-83
2022/07/24 08:00:02;;;;;;;0.80;0.70;;;;;;;26.63;41.69;101273.16;4932701;29;20075;-89
2022/07/24 08:02:31;;;;;;;2.15;0.88;;;;;;;27.01;41.08;101280.47;4944137;29;20247;-83
2022/07/24 08:04:58;;;;;;;1.73;1.20;;;;;;;27.34;40.88;101269.22;4950271;29;20094;-85
2022/07/24 08:07:25;;;;;;;0.50;0.50;;;;;;;27.81;39.90;101269.50;4945273;28;20058;-84
2022/07/24 08:09:51;;;;;;;2.08;0.70;;;;;;;28.32;38.53;101264.97;4925427;29;20055;-84
2022/07/24 08:12:19;;;;;;;1.63;0.85;;;;;;;28.51;38.21;101268.00;4932785;29;20051;-83
2022/07/24 08:14:48;;;;;;;1.45;0.80;;;;;;;28.86;36.72;101263.59;4938397;29;20098;-83
2022/07/24 08:17:15;;;;;;;3.20;1.00;;;;;;;29.06;36.10;101280.94;4934656;29;20483;-83
2022/07/24 08:19:45;;;;;;;1.33;1.00;;;;;;;29.31;35.87;101281.75;4934141;29;20036;-82
2022/07/24 08:22:12;;;;;;;0.95;0.90;;;;;;;29.65;35.55;101279.94;4940204;29;20043;-83
2022/07/24 08:24:39;;;;;;;1.00;1.00;;;;;;;29.81;35.01;101274.13;4924171;29;20039;-87
2022/07/24 08:27:08;;;;;;;0.90;0.90;;;;;;;29.85;34.28;101272.06;4940872;29;20117;-86
2022/07/24 08:29:37;;;;;;;1.67;0.70;;;;;;;29.54;35.24;101270.00;4938851;29;20086;-87
2022/07/24 08:32:05;;;;;;;1.13;1.13;;;;;;;29.91;34.13;101262.63;4930648;29;20411;-85
2022/07/24 08:34:36;;;;;;;1.27;1.27;;;;;;;30.03;34.08;101272.44;4945478;29;20501;-87
2022/07/24 08:37:02;;;;;;;0.80;0.80;;;;;;;30.09;34.15;101268.38;4936542;29;20732;-83
2022/07/24 08:39:32;;;;;;;1.40;1.02;;;;;;;30.50;33.94;101269.50;4939962;29;20645;-83
2022/07/24 08:42:00;;;;;;;1.02;0.90;;;;;;;31.23;32.57;101264.22;4941795;29;20040;-83
2022/07/24 08:44:27;;;;;;;1.23;1.00;;;;;;;31.86;31.90;101262.34;4922055;29;20071;-84
2022/07/24 08:46:59;;;;;;;0.95;0.95;;;;;;;32.27;30.81;101268.59;4935065;29;20054;-84
2022/07/24 08:49:33;;;;;;;1.30;1.30;;;;;;;32.42;30.03;101275.28;4926933;29;20528;-86
2022/07/24 08:52:08;;;;;;;1.25;1.25;;;;;;;32.73;29.98;101266.22;4925666;29;20146;-82
2022/07/24 08:54:37;;;;;;;1.33;1.23;;;;;;;32.70;29.29;101253.75;4931454;29;20071;-84
2022/07/24 08:57:05;;;;;;;1.98;1.17;;;;;;;32.53;29.61;101255.34;4923657;29;20175;-84
2022/07/24 08:59:32;;;;;;;1.38;1.25;;;;;;;32.93;29.41;101258.88;4935519;29;20054;-84
2022/07/24 09:01:59;;;;;;;1.80;1.70;;;;;;;33.21;28.49;101256.25;4932733;29;20079;-85
2022/07/24 09:04:44;;;;;;;1.75;1.65;;;;;;;33.42;27.95;101253.34;4937348;29;20099;-86
2022/07/24 09:07:18;;;;;;;1.90;1.80;;;;;;;33.89;26.85;101260.59;4937288;29;20051;-84
2022/07/24 09:10:04;;;;;;;3.53;1.85;;;;;;;33.93;26.08;101249.25;4933110;29;20044;-85
2022/07/24 09:12:45;;;;;;;1.65;1.55;;;;;;;34.12;26.51;101242.84;4923032;29;20047;-84
2022/07/24 09:15:26;;;;;;;1.75;1.58;;;;;;;33.72;26.74;101256.78;4941305;29;20087;-84
2022/07/24 09:18:01;;;;;;;2.53;1.60;;;;;;;33.92;26.54;101262.97;4939535;29;20046;-81
2022/07/24 09:20:30;;;;;;;2.10;1.60;;;;;;;34.56;25.56;101246.66;4947060;28;20087;-85
2022/07/24 09:22:59;;;;;;;1.23;1.10;;;;;;;35.15;25.33;101256.97;4942669;28;20106;-84
2022/07/24 09:25:29;;;;;;;3.42;1.77;;;;;;;35.45;25.12;101247.47;4922326;29;20131;-84
2022/07/24 09:28:01;;;;;;;1.10;1.10;;;;;;;35.98;24.86;101233.72;4945200;28;20059;-84
2022/07/24 09:30:44;;;;;;;2.08;1.98;;;;;;;36.49;23.12;101244.53;4927093;29;20134;-86
2022/07/24 09:33:14;;;;;;;1.65;1.55;;;;;;;36.14;23.45;101244.66;4937410;29;20051;-87
2022/07/24 09:35:53;;;;;;;2.13;2.03;;;;;;;35.55;23.80;101242.75;4942283;29;20042;-87
2022/07/24 09:38:23;;;;;;;1.90;1.83;;;;;;;35.91;23.94;101242.53;4924865;29;20082;-83
2022/07/24 09:41:00;;;;;;;1.65;1.65;;;;;;;36.78;22.39;101243.13;4939267;29;20031;-85
2022/07/24 09:43:35;;;;;;;1.88;1.77;;;;;;;37.26;21.62;101241.34;4946435;29;20091;-86
2022/07/24 09:46:08;;;;;;;2.88;1.70;;;;;;;37.24;22.37;101240.69;4941605;29;20043;-85
2022/07/24 09:48:54;;;;;;;1.98;1.70;;;;;;;37.46;21.67;101244.56;4940680;29;20173;-86
2022/07/24 09:51:22;;;;;;;1.73;1.73;;;;;;;37.39;21.84;101238.97;4932709;29;20122;-83
2022/07/24 09:53:58;;;;;;;2.22;2.10;;;;;;;37.60;21.16;101234.78;4924731;29;20490;-85
2022/07/24 09:56:26;;;;;;;5.07;4.78;;;;;;;38.02;21.07;101236.25;4923442;29;20072;-89
2022/07/24 09:59:07;;;;;;;2.03;1.92;;;;;;;38.93;20.17;101232.81;4921293;29;20039;-84
2022/07/24 10:01:37;;;;;;;2.70;2.17;;;;;;;39.43;20.10;101229.53;4946748;29;20122;-87
2022/07/24 10:04:07;;;;;;;2.25;1.98;;;;;;;38.83;20.12;101230.34;4955199;29;20605;-87
2022/07/24 10:06:38;;;;;;;2.67;2.47;;;;;;;37.73;21.14;101231.44;4952020;29;20051;-88
2022/07/24 10:09:07;;;;;;;2.37;2.27;;;;;;;38.03;21.12;101229.75;4947506;29;20067;-86
2022/07/24 10:11:36;;;;;;;2.28;2.17;;;;;;;38.31;20.90;101228.41;4946547;29;20521;-87
2022/07/24 10:14:03;;;;;;;3.50;2.17;;;;;;;38.94;20.35;101222.69;4945996;28;20569;-84
2022/07/24 10:16:33;;;;;;;2.22;2.10;;;;;;;39.81;19.48;101219.25;4949312;29;20050;-85
2022/07/24 10:19:05;;;;;;;4.30;2.28;;;;;;;40.50;18.59;101219.72;4943004;29;20043;-86
2022/07/24 10:21:39;;;;;;;2.58;2.38;;;;;;;39.97;19.31;101214.56;4929992;29;20130;-87
2022/07/24 10:24:06;;;;;;;2.85;2.65;;;;;;;39.80;19.47;101208.47;4930037;29;20526;-84
2022/07/24 10:26:43;;;;;;;3.80;2.22;;;;;;;40.38;18.97;101205.69;4942261;29;20092;-85
2022/07/24 10:29:24;;;;;;;3.15;2.70;;;;;;;41.07;18.43;101197.75;4937972;29;20679;-83
2022/07/24 10:31:56;;;;;;;2.40;2.22;;;;;;;41.43;18.02;101192.03;4933225;29;20048;-85
2022/07/24 10:34:55;;;;;;;3.50;1.98;;;;;;;41.95;16.89;101195.16;4942617;29;20048;-84
2022/07/24 10:37:33;;;;;;;2.85;2.65;;;;;;;42.12;17.67;101192.84;4945290;29;20062;-86
2022/07/24 10:40:50;;;;;;;2.33;2.00;;;;;;;42.01;16.76;101192.63;4959023;28;20118;-85
2022/07/24 10:43:24;;;;;;;2.92;2.83;;;;;;;40.62;17.76;101195.34;4941126;29;20169;-85
2022/07/24 10:45:54;;;;;;;2.38;2.22;;;;;;;40.28;18.21;101189.56;4941568;29;20055;-84
2022/07/24 10:48:20;;;;;;;3.13;2.88;;;;;;;40.51;17.82;101180.28;4959510;28;20051;-88
2022/07/24 10:50:59;;;;;;;2.72;2.60;;;;;;;40.70;17.46;101183.38;4950250;28;20077;-83
2022/07/24 10:53:36;;;;;;;2.40;2.25;;;;;;;41.28;17.24;101183.94;4942662;29;20130;-84
2022/07/24 10:56:24;;;;;;;2.30;2.20;;;;;;;42.03;16.13;101182.28;4947470;28;20141;-91
2022/07/24 10:59:07;;;;;;;2.60;2.38;;;;;;;41.87;16.95;101184.38;4954544;28;20047;-84
2022/07/24 11:01:42;;;;;;;2.50;2.22;;;;;;;41.25;17.08;101181.59;4938148;29;20572;-85
2022/07/24 11:04:22;;;;;;;2.72;2.53;;;;;;;40.88;17.22;101180.13;4952378;28;20519;-85
2022/07/24 11:07:20;;;;;;;2.55;2.45;;;;;;;39.97;18.36;101184.41;4939124;29;20039;-84
2022/07/24 11:10:07;;;;;;;2.25;2.22;;;;;;;39.88;18.36;101171.88;4917952;29;20490;-87
2022/07/24 11:12:42;;;;;;;3.88;3.25;;;;;;;39.45;18.58;101189.94;4930988;29;20035;-83
2022/07/24 11:17:54;;;;;;;2.30;2.17;;;;;;;40.95;17.75;101173.63;4945591;29;20414;-85
2022/07/24 11:20:23;;;;;;;2.88;2.10;;;;;;;41.79;17.44;101163.38;4939362;29;20039;-85
2022/07/24 11:22:57;;;;;;;3.05;2.75;;;;;;;43.02;16.08;101163.97;4942102;29;20043;-84
2022/07/24 11:25:31;;;;;;;3.45;2.83;;;;;;;43.85;15.56;101159.56;4939738;28;20122;-85
2022/07/24 11:28:19;;;;;;;2.75;2.55;;;;;;;42.48;15.66;101144.81;4938928;29;20049;-83
2022/07/24 11:30:50;;;;;;;2.70;2.60;;;;;;;41.55;17.30;101152.97;4941807;29;20043;-86
2022/07/24 11:33:22;;;;;;;2.33;2.28;;;;;;;42.20;16.41;101152.44;4954781;28;20047;-83
2022/07/24 11:35:50;;;;;;;2.70;2.50;;;;;;;42.04;16.58;101156.47;4949325;29;20471;-86
2022/07/24 11:38:30;;;;;;;3.40;3.20;;;;;;;41.39;16.81;101156.91;4928562;29;20035;-86
2022/07/24 11:41:07;;;;;;;3.20;3.00;;;;;;;40.63;17.41;101144.91;4951039;28;20051;-83
2022/07/24 11:43:54;;;;;;;3.97;2.72;;;;;;;40.80;17.28;101153.69;4947641;29;20125;-82